sensor_id;sensor_type;location;lat;lon;timestamp;temperature;humidity
25482;DHT22;13395;50.752;4.268;2023-02-24T00:01:37;7.60;99.90
25482;DHT22;13395;50.752;4.268;2023-02-24T00:04:06;7.50;99.90
25482;DHT22;13395;50.752;4.268;2023-02-24T00:06:34;7.40;99.90
25482;DHT22;13395;50.752;4.268;2023-02-24T00:09:26;7.50;99.90
25482;DHT22;13395;50.752;4.268;2023-02-24T00:12:00;7.50;99.90
25482;DHT22;13395;50.752;4.268;2023-02-24T00:14:29;7.60;99.90
25482;DHT22;13395;50.752;4.268;2023-02-24T00:16:55;7.60;99.90
25482;DHT22;13395;50.752;4.268;2023-02-24T00:19:23;7.60;99.90
25482;DHT22;13395;50.752;4.268;2023-02-24T00:21:50;7.60;99.90
25482;DHT22;13395;50.752;4.268;2023-02-24T00:24:19;7.50;99.90
25482;DHT22;13395;50.752;4.268;2023-02-24T00:26:44;7.40;99.90
25482;DHT22;13395;50.752;4.268;2023-02-24T00:29:12;7.30;99.90
25482;DHT22;13395;50.752;4.268;2023-02-24T00:31:40;7.40;99.90
25482;DHT22;13395;50.752;4.268;2023-02-24T00:34:08;7.40;99.90
25482;DHT22;13395;50.752;4.268;2023-02-24T00:36:34;7.40;99.90
25482;DHT22;13395;50.752;4.268;2023-02-24T00:39:03;7.60;99.90
25482;DHT22;13395;50.752;4.268;2023-02-24T00:41:34;7.30;99.90
25482;DHT22;13395;50.752;4.268;2023-02-24T00:44:03;7.50;99.90
25482;DHT22;13395;50.752;4.268;2023-02-24T00:46:31;7.50;99.90
25482;DHT22;13395;50.752;4.268;2023-02-24T00:49:00;7.60;99.90
25482;DHT22;13395;50.752;4.268;2023-02-24T00:51:33;7.60;99.90
25482;DHT22;13395;50.752;4.268;2023-02-24T00:54:00;7.60;99.90
25482;DHT22;13395;50.752;4.268;2023-02-24T00:56:26;7.70;99.90
25482;DHT22;13395;50.752;4.268;2023-02-24T00:58:54;7.40;99.90
25482;DHT22;13395;50.752;4.268;2023-02-24T01:01:23;7.40;99.90
25482;DHT22;13395;50.752;4.268;2023-02-24T01:03:50;7.40;99.90
25482;DHT22;13395;50.752;4.268;2023-02-24T01:06:20;7.60;99.90
25482;DHT22;13395;50.752;4.268;2023-02-24T01:08:47;7.50;99.90
25482;DHT22;13395;50.752;4.268;2023-02-24T01:11:16;7.60;99.90
25482;DHT22;13395;50.752;4.268;2023-02-24T01:14:06;7.80;99.90
25482;DHT22;13395;50.752;4.268;2023-02-24T01:16:33;7.70;99.90
25482;DHT22;13395;50.752;4.268;2023-02-24T01:18:59;7.60;99.90
25482;DHT22;13395;50.752;4.268;2023-02-24T01:21:25;7.60;99.90
25482;DHT22;13395;50.752;4.268;2023-02-24T01:23:51;7.60;99.90
25482;DHT22;13395;50.752;4.268;2023-02-24T01:26:17;7.70;99.90
25482;DHT22;13395;50.752;4.268;2023-02-24T01:28:44;7.70;99.90
25482;DHT22;13395;50.752;4.268;2023-02-24T01:31:14;7.50;99.90
25482;DHT22;13395;50.752;4.268;2023-02-24T01:33:42;7.60;99.90
25482;DHT22;13395;50.752;4.268;2023-02-24T01:36:14;7.70;99.90
25482;DHT22;13395;50.752;4.268;2023-02-24T01:38:41;7.80;99.90
25482;DHT22;13395;50.752;4.268;2023-02-24T01:41:09;7.90;99.90
25482;DHT22;13395;50.752;4.268;2023-02-24T01:46:24;7.90;99.90
25482;DHT22;13395;50.752;4.268;2023-02-24T01:48:51;8.00;99.90
25482;DHT22;13395;50.752;4.268;2023-02-24T01:51:19;8.00;99.90
25482;DHT22;13395;50.752;4.268;2023-02-24T01:53:45;8.00;99.90
25482;DHT22;13395;50.752;4.268;2023-02-24T01:56:11;7.90;99.90
25482;DHT22;13395;50.752;4.268;2023-02-24T01:58:38;8.00;99.90
25482;DHT22;13395;50.752;4.268;2023-02-24T02:01:06;8.10;99.90
25482;DHT22;13395;50.752;4.268;2023-02-24T02:03:36;8.00;99.90
25482;DHT22;13395;50.752;4.268;2023-02-24T02:06:06;7.90;99.90
25482;DHT22;13395;50.752;4.268;2023-02-24T02:08:32;7.90;99.90
25482;DHT22;13395;50.752;4.268;2023-02-24T02:11:07;8.00;99.90
25482;DHT22;13395;50.752;4.268;2023-02-24T02:13:36;7.70;99.90
25482;DHT22;13395;50.752;4.268;2023-02-24T02:21:35;7.60;99.90
25482;DHT22;13395;50.752;4.268;2023-02-24T02:35:50;7.60;99.90
25482;DHT22;13395;50.752;4.268;2023-02-24T02:51:16;7.90;99.90
25482;DHT22;13395;50.752;4.268;2023-02-24T02:56:45;7.70;99.90
25482;DHT22;13395;50.752;4.268;2023-02-24T02:59:14;7.60;99.90
25482;DHT22;13395;50.752;4.268;2023-02-24T03:01:47;7.50;99.90
25482;DHT22;13395;50.752;4.268;2023-02-24T03:04:16;7.40;99.90
25482;DHT22;13395;50.752;4.268;2023-02-24T03:06:51;7.60;99.90
25482;DHT22;13395;50.752;4.268;2023-02-24T03:09:28;7.40;99.90
25482;DHT22;13395;50.752;4.268;2023-02-24T03:12:02;7.40;99.90
25482;DHT22;13395;50.752;4.268;2023-02-24T03:14:31;7.30;99.90
25482;DHT22;13395;50.752;4.268;2023-02-24T03:17:06;7.30;99.90
25482;DHT22;13395;50.752;4.268;2023-02-24T03:19:35;7.30;99.90
25482;DHT22;13395;50.752;4.268;2023-02-24T03:22:32;7.30;99.90
25482;DHT22;13395;50.752;4.268;2023-02-24T03:24:59;7.10;99.90
25482;DHT22;13395;50.752;4.268;2023-02-24T03:27:37;7.20;99.90
25482;DHT22;13395;50.752;4.268;2023-02-24T03:30:09;7.30;99.90
25482;DHT22;13395;50.752;4.268;2023-02-24T03:32:50;7.30;99.90
25482;DHT22;13395;50.752;4.268;2023-02-24T03:35:26;7.30;99.90
25482;DHT22;13395;50.752;4.268;2023-02-24T03:37:54;7.30;99.90
25482;DHT22;13395;50.752;4.268;2023-02-24T03:40:22;7.40;99.90
25482;DHT22;13395;50.752;4.268;2023-02-24T03:43:12;7.40;99.90
25482;DHT22;13395;50.752;4.268;2023-02-24T03:45:41;7.40;99.90
25482;DHT22;13395;50.752;4.268;2023-02-24T03:48:08;7.30;99.90
25482;DHT22;13395;50.752;4.268;2023-02-24T03:50:35;7.20;99.90
25482;DHT22;13395;50.752;4.268;2023-02-24T03:56:08;7.30;99.90
25482;DHT22;13395;50.752;4.268;2023-02-24T04:01:30;7.40;99.90
25482;DHT22;13395;50.752;4.268;2023-02-24T04:04:04;7.40;99.90
25482;DHT22;13395;50.752;4.268;2023-02-24T04:06:46;7.40;99.90
25482;DHT22;13395;50.752;4.268;2023-02-24T04:15:02;7.30;99.90
25482;DHT22;13395;50.752;4.268;2023-02-24T04:17:43;7.30;99.90
25482;DHT22;13395;50.752;4.268;2023-02-24T04:20:11;7.30;99.90
25482;DHT22;13395;50.752;4.268;2023-02-24T04:22:41;7.40;99.90
25482;DHT22;13395;50.752;4.268;2023-02-24T04:25:08;7.60;99.90
25482;DHT22;13395;50.752;4.268;2023-02-24T04:27:39;7.40;99.90
25482;DHT22;13395;50.752;4.268;2023-02-24T04:30:06;7.40;99.90
25482;DHT22;13395;50.752;4.268;2023-02-24T04:32:35;7.40;99.90
25482;DHT22;13395;50.752;4.268;2023-02-24T04:35:06;7.40;99.90
25482;DHT22;13395;50.752;4.268;2023-02-24T04:37:34;7.50;99.90
25482;DHT22;13395;50.752;4.268;2023-02-24T04:40:00;7.40;99.90
25482;DHT22;13395;50.752;4.268;2023-02-24T04:42:26;7.30;99.90
25482;DHT22;13395;50.752;4.268;2023-02-24T04:44:53;7.30;99.90
25482;DHT22;13395;50.752;4.268;2023-02-24T04:47:19;7.20;99.90
25482;DHT22;13395;50.752;4.268;2023-02-24T04:49:45;7.20;99.90
25482;DHT22;13395;50.752;4.268;2023-02-24T04:52:10;7.10;99.90
25482;DHT22;13395;50.752;4.268;2023-02-24T04:54:36;7.20;99.90
25482;DHT22;13395;50.752;4.268;2023-02-24T04:57:03;7.00;99.90
25482;DHT22;13395;50.752;4.268;2023-02-24T04:59:31;7.00;99.90
25482;DHT22;13395;50.752;4.268;2023-02-24T05:01:57;7.00;99.90
25482;DHT22;13395;50.752;4.268;2023-02-24T05:04:26;6.80;99.90
25482;DHT22;13395;50.752;4.268;2023-02-24T05:06:55;6.60;99.90
25482;DHT22;13395;50.752;4.268;2023-02-24T05:09:22;6.50;99.90
25482;DHT22;13395;50.752;4.268;2023-02-24T05:11:49;6.40;99.90
25482;DHT22;13395;50.752;4.268;2023-02-24T05:14:17;6.30;99.90
25482;DHT22;13395;50.752;4.268;2023-02-24T05:16:46;6.10;99.90
25482;DHT22;13395;50.752;4.268;2023-02-24T05:19:16;6.10;99.90
25482;DHT22;13395;50.752;4.268;2023-02-24T05:22:02;6.00;99.90
25482;DHT22;13395;50.752;4.268;2023-02-24T05:24:30;6.00;99.90
25482;DHT22;13395;50.752;4.268;2023-02-24T05:26:56;5.90;99.90
25482;DHT22;13395;50.752;4.268;2023-02-24T05:29:24;6.10;99.90
25482;DHT22;13395;50.752;4.268;2023-02-24T05:31:51;5.80;99.90
25482;DHT22;13395;50.752;4.268;2023-02-24T05:34:19;5.90;99.90
25482;DHT22;13395;50.752;4.268;2023-02-24T05:36:45;5.70;99.90
25482;DHT22;13395;50.752;4.268;2023-02-24T05:39:11;5.70;99.90
25482;DHT22;13395;50.752;4.268;2023-02-24T05:41:43;5.70;99.90
25482;DHT22;13395;50.752;4.268;2023-02-24T05:44:11;5.60;99.90
25482;DHT22;13395;50.752;4.268;2023-02-24T05:46:39;5.60;99.90
25482;DHT22;13395;50.752;4.268;2023-02-24T05:49:11;5.50;99.90
25482;DHT22;13395;50.752;4.268;2023-02-24T05:51:38;5.50;99.90
25482;DHT22;13395;50.752;4.268;2023-02-24T05:54:10;5.40;99.90
25482;DHT22;13395;50.752;4.268;2023-02-24T05:56:38;5.20;99.90
25482;DHT22;13395;50.752;4.268;2023-02-24T05:59:06;5.20;99.90
25482;DHT22;13395;50.752;4.268;2023-02-24T06:01:38;5.20;99.90
25482;DHT22;13395;50.752;4.268;2023-02-24T06:04:07;5.10;99.90
25482;DHT22;13395;50.752;4.268;2023-02-24T06:06:33;5.00;99.90
25482;DHT22;13395;50.752;4.268;2023-02-24T06:09:00;5.00;99.90
25482;DHT22;13395;50.752;4.268;2023-02-24T06:11:32;4.90;99.90
25482;DHT22;13395;50.752;4.268;2023-02-24T06:13:57;4.90;99.90
25482;DHT22;13395;50.752;4.268;2023-02-24T06:16:23;4.90;99.90
25482;DHT22;13395;50.752;4.268;2023-02-24T06:18:50;4.90;99.90
25482;DHT22;13395;50.752;4.268;2023-02-24T06:21:17;4.80;99.90
25482;DHT22;13395;50.752;4.268;2023-02-24T06:23:43;4.70;99.90
25482;DHT22;13395;50.752;4.268;2023-02-24T06:26:09;4.70;99.90
25482;DHT22;13395;50.752;4.268;2023-02-24T06:28:40;4.80;99.90
25482;DHT22;13395;50.752;4.268;2023-02-24T06:31:08;4.60;99.90
25482;DHT22;13395;50.752;4.268;2023-02-24T06:33:39;4.60;99.90
25482;DHT22;13395;50.752;4.268;2023-02-24T06:36:05;4.70;99.90
25482;DHT22;13395;50.752;4.268;2023-02-24T06:38:33;4.80;99.90
25482;DHT22;13395;50.752;4.268;2023-02-24T06:41:00;4.80;99.90
25482;DHT22;13395;50.752;4.268;2023-02-24T06:43:29;4.80;99.90
25482;DHT22;13395;50.752;4.268;2023-02-24T06:45:55;4.90;99.90
25482;DHT22;13395;50.752;4.268;2023-02-24T06:48:20;4.90;99.90
25482;DHT22;13395;50.752;4.268;2023-02-24T06:50:47;5.00;99.90
25482;DHT22;13395;50.752;4.268;2023-02-24T06:53:15;4.90;99.90
25482;DHT22;13395;50.752;4.268;2023-02-24T06:55:46;4.90;99.90
25482;DHT22;13395;50.752;4.268;2023-02-24T06:58:16;4.90;99.90
25482;DHT22;13395;50.752;4.268;2023-02-24T07:00:42;4.90;99.90
25482;DHT22;13395;50.752;4.268;2023-02-24T07:03:16;4.90;99.90
25482;DHT22;13395;50.752;4.268;2023-02-24T07:05:47;5.00;99.90
25482;DHT22;13395;50.752;4.268;2023-02-24T07:08:23;5.10;99.90
25482;DHT22;13395;50.752;4.268;2023-02-24T07:10:55;5.00;99.90
25482;DHT22;13395;50.752;4.268;2023-02-24T07:13:23;5.10;99.90
25482;DHT22;13395;50.752;4.268;2023-02-24T07:15:50;5.10;99.90
25482;DHT22;13395;50.752;4.268;2023-02-24T07:18:16;5.30;99.90
25482;DHT22;13395;50.752;4.268;2023-02-24T07:20:43;5.50;99.90
25482;DHT22;13395;50.752;4.268;2023-02-24T07:23:15;5.50;99.90
25482;DHT22;13395;50.752;4.268;2023-02-24T07:25:42;5.60;99.90
25482;DHT22;13395;50.752;4.268;2023-02-24T07:28:13;5.60;99.90
25482;DHT22;13395;50.752;4.268;2023-02-24T07:30:40;5.50;99.90
25482;DHT22;13395;50.752;4.268;2023-02-24T07:33:07;5.60;99.90
25482;DHT22;13395;50.752;4.268;2023-02-24T07:35:33;5.50;99.90
25482;DHT22;13395;50.752;4.268;2023-02-24T07:38:04;5.70;99.90
25482;DHT22;13395;50.752;4.268;2023-02-24T07:40:31;5.70;99.90
25482;DHT22;13395;50.752;4.268;2023-02-24T07:43:01;5.80;99.90
25482;DHT22;13395;50.752;4.268;2023-02-24T07:45:27;6.00;99.90
25482;DHT22;13395;50.752;4.268;2023-02-24T07:47:54;6.00;99.90
25482;DHT22;13395;50.752;4.268;2023-02-24T07:50:20;6.10;99.90
25482;DHT22;13395;50.752;4.268;2023-02-24T07:52:46;6.20;99.90
25482;DHT22;13395;50.752;4.268;2023-02-24T07:55:16;6.40;99.90
25482;DHT22;13395;50.752;4.268;2023-02-24T07:57:42;6.60;99.90
25482;DHT22;13395;50.752;4.268;2023-02-24T08:00:12;6.90;99.90
25482;DHT22;13395;50.752;4.268;2023-02-24T08:02:44;7.00;99.90
25482;DHT22;13395;50.752;4.268;2023-02-24T08:05:10;7.30;99.90
25482;DHT22;13395;50.752;4.268;2023-02-24T08:07:35;7.40;99.90
25482;DHT22;13395;50.752;4.268;2023-02-24T08:10:01;7.60;99.90
25482;DHT22;13395;50.752;4.268;2023-02-24T08:12:48;7.80;99.90
25482;DHT22;13395;50.752;4.268;2023-02-24T08:15:19;8.00;99.90
25482;DHT22;13395;50.752;4.268;2023-02-24T08:17:56;8.40;99.90
25482;DHT22;13395;50.752;4.268;2023-02-24T08:20:30;8.70;99.90
25482;DHT22;13395;50.752;4.268;2023-02-24T08:23:16;8.80;99.90
25482;DHT22;13395;50.752;4.268;2023-02-24T08:25:43;8.90;99.90
25482;DHT22;13395;50.752;4.268;2023-02-24T08:28:09;8.90;99.90
25482;DHT22;13395;50.752;4.268;2023-02-24T08:30:41;8.70;99.90
25482;DHT22;13395;50.752;4.268;2023-02-24T08:33:11;8.60;99.90
25482;DHT22;13395;50.752;4.268;2023-02-24T08:35:40;8.80;99.90
25482;DHT22;13395;50.752;4.268;2023-02-24T08:38:20;8.90;99.90
25482;DHT22;13395;50.752;4.268;2023-02-24T08:40:49;8.90;99.90
25482;DHT22;13395;50.752;4.268;2023-02-24T08:43:27;8.90;99.90
25482;DHT22;13395;50.752;4.268;2023-02-24T08:45:56;8.70;99.90
25482;DHT22;13395;50.752;4.268;2023-02-24T08:48:26;8.70;99.90
25482;DHT22;13395;50.752;4.268;2023-02-24T08:53:55;8.40;99.90
25482;DHT22;13395;50.752;4.268;2023-02-24T08:56:31;8.40;99.90
25482;DHT22;13395;50.752;4.268;2023-02-24T08:59:01;8.60;99.90
25482;DHT22;13395;50.752;4.268;2023-02-24T09:01:38;8.50;99.90
25482;DHT22;13395;50.752;4.268;2023-02-24T09:04:10;8.70;99.90
25482;DHT22;13395;50.752;4.268;2023-02-24T09:06:37;9.00;99.90
25482;DHT22;13395;50.752;4.268;2023-02-24T09:09:04;9.90;99.90
25482;DHT22;13395;50.752;4.268;2023-02-24T09:11:47;11.00;99.90
25482;DHT22;13395;50.752;4.268;2023-02-24T09:14:16;12.10;99.90
25482;DHT22;13395;50.752;4.268;2023-02-24T09:16:43;12.80;99.90
25482;DHT22;13395;50.752;4.268;2023-02-24T09:19:31;13.10;99.90
25482;DHT22;13395;50.752;4.268;2023-02-24T09:22:08;13.00;99.90
25482;DHT22;13395;50.752;4.268;2023-02-24T09:24:54;13.30;99.90
25482;DHT22;13395;50.752;4.268;2023-02-24T09:27:39;14.20;99.90
25482;DHT22;13395;50.752;4.268;2023-02-24T09:30:09;15.20;99.90
25482;DHT22;13395;50.752;4.268;2023-02-24T09:32:55;15.40;98.60
25482;DHT22;13395;50.752;4.268;2023-02-24T09:35:26;15.40;97.60
25482;DHT22;13395;50.752;4.268;2023-02-24T09:37:58;15.60;97.30
25482;DHT22;13395;50.752;4.268;2023-02-24T09:40:31;16.20;96.40
25482;DHT22;13395;50.752;4.268;2023-02-24T09:43:15;16.10;95.20
25482;DHT22;13395;50.752;4.268;2023-02-24T09:45:53;15.50;95.20
25482;DHT22;13395;50.752;4.268;2023-02-24T09:48:50;14.90;96.30
25482;DHT22;13395;50.752;4.268;2023-02-24T09:51:19;14.90;96.90
25482;DHT22;13395;50.752;4.268;2023-02-24T09:53:52;16.20;95.70
25482;DHT22;13395;50.752;4.268;2023-02-24T09:56:45;16.70;94.10
25482;DHT22;13395;50.752;4.268;2023-02-24T09:59:31;16.40;93.40
25482;DHT22;13395;50.752;4.268;2023-02-24T10:02:39;15.10;94.80
25482;DHT22;13395;50.752;4.268;2023-02-24T10:05:21;14.20;95.90
25482;DHT22;13395;50.752;4.268;2023-02-24T10:07:49;13.10;97.00
25482;DHT22;13395;50.752;4.268;2023-02-24T10:10:22;12.20;97.80
25482;DHT22;13395;50.752;4.268;2023-02-24T10:15:41;11.60;99.90
25482;DHT22;13395;50.752;4.268;2023-02-24T10:26:37;10.60;99.90
25482;DHT22;13395;50.752;4.268;2023-02-24T10:32:25;10.20;99.90
25482;DHT22;13395;50.752;4.268;2023-02-24T10:34:59;10.20;99.90
25482;DHT22;13395;50.752;4.268;2023-02-24T10:37:25;10.30;99.90
25482;DHT22;13395;50.752;4.268;2023-02-24T10:40:06;10.10;99.90
25482;DHT22;13395;50.752;4.268;2023-02-24T10:42:36;9.90;99.90
25482;DHT22;13395;50.752;4.268;2023-02-24T10:45:15;9.80;99.90
25482;DHT22;13395;50.752;4.268;2023-02-24T10:47:44;9.40;99.90
25482;DHT22;13395;50.752;4.268;2023-02-24T10:52:51;9.40;99.90
25482;DHT22;13395;50.752;4.268;2023-02-24T10:55:44;9.40;99.90
25482;DHT22;13395;50.752;4.268;2023-02-24T10:58:15;9.40;99.90
25482;DHT22;13395;50.752;4.268;2023-02-24T11:00:56;9.30;99.90
25482;DHT22;13395;50.752;4.268;2023-02-24T11:03:31;9.40;99.90
25482;DHT22;13395;50.752;4.268;2023-02-24T11:06:03;9.50;99.90
25482;DHT22;13395;50.752;4.268;2023-02-24T11:08:34;9.70;99.90
25482;DHT22;13395;50.752;4.268;2023-02-24T11:11:19;9.60;99.90
25482;DHT22;13395;50.752;4.268;2023-02-24T11:13:51;9.60;99.90
25482;DHT22;13395;50.752;4.268;2023-02-24T11:16:52;9.60;99.90
25482;DHT22;13395;50.752;4.268;2023-02-24T11:19:49;9.90;99.90
25482;DHT22;13395;50.752;4.268;2023-02-24T11:22:26;10.10;99.90
25482;DHT22;13395;50.752;4.268;2023-02-24T11:24:56;10.30;99.90
25482;DHT22;13395;50.752;4.268;2023-02-24T11:27:23;10.50;99.90
25482;DHT22;13395;50.752;4.268;2023-02-24T11:30:05;10.80;99.90
25482;DHT22;13395;50.752;4.268;2023-02-24T11:38:26;12.60;99.90
25482;DHT22;13395;50.752;4.268;2023-02-24T11:41:42;13.50;99.50
25482;DHT22;13395;50.752;4.268;2023-02-24T11:44:26;14.00;97.90
25482;DHT22;13395;50.752;4.268;2023-02-24T11:47:03;14.70;96.80
25482;DHT22;13395;50.752;4.268;2023-02-24T11:49:47;14.60;97.00
25482;DHT22;13395;50.752;4.268;2023-02-24T11:52:34;14.20;95.50
25482;DHT22;13395;50.752;4.268;2023-02-24T11:55:02;13.90;96.70
25482;DHT22;13395;50.752;4.268;2023-02-24T11:57:40;13.30;97.10
25482;DHT22;13395;50.752;4.268;2023-02-24T12:02:48;13.10;97.80
25482;DHT22;13395;50.752;4.268;2023-02-24T12:05:18;12.70;97.60
25482;DHT22;13395;50.752;4.268;2023-02-24T12:07:49;12.40;98.50
25482;DHT22;13395;50.752;4.268;2023-02-24T12:10:28;12.00;99.20
25482;DHT22;13395;50.752;4.268;2023-02-24T12:15:47;11.70;99.90
25482;DHT22;13395;50.752;4.268;2023-02-24T12:18:35;11.70;99.80
25482;DHT22;13395;50.752;4.268;2023-02-24T12:21:10;11.40;99.90
25482;DHT22;13395;50.752;4.268;2023-02-24T12:23:41;11.30;99.90
25482;DHT22;13395;50.752;4.268;2023-02-24T12:26:35;11.20;99.90
25482;DHT22;13395;50.752;4.268;2023-02-24T12:45:45;12.40;98.90
25482;DHT22;13395;50.752;4.268;2023-02-24T12:51:01;13.00;98.40
25482;DHT22;13395;50.752;4.268;2023-02-24T12:53:58;13.10;98.20
25482;DHT22;13395;50.752;4.268;2023-02-24T12:56:56;13.10;97.70
25482;DHT22;13395;50.752;4.268;2023-02-24T12:59:27;13.00;97.80
25482;DHT22;13395;50.752;4.268;2023-02-24T13:02:02;13.00;98.60
25482;DHT22;13395;50.752;4.268;2023-02-24T13:05:03;13.20;98.30
25482;DHT22;13395;50.752;4.268;2023-02-24T13:12:44;12.60;99.50
25482;DHT22;13395;50.752;4.268;2023-02-24T13:15:21;12.60;99.90
25482;DHT22;13395;50.752;4.268;2023-02-24T13:17:49;12.50;99.80
25482;DHT22;13395;50.752;4.268;2023-02-24T13:20:27;12.00;99.90
25482;DHT22;13395;50.752;4.268;2023-02-24T13:22:54;11.90;99.90
25482;DHT22;13395;50.752;4.268;2023-02-24T13:25:24;11.80;99.90
25482;DHT22;13395;50.752;4.268;2023-02-24T13:27:57;11.80;99.90
25482;DHT22;13395;50.752;4.268;2023-02-24T13:30:37;11.90;99.90
25482;DHT22;13395;50.752;4.268;2023-02-24T13:33:19;11.70;99.90
25482;DHT22;13395;50.752;4.268;2023-02-24T13:35:47;11.80;99.90
25482;DHT22;13395;50.752;4.268;2023-02-24T13:40:50;11.50;99.90
25482;DHT22;13395;50.752;4.268;2023-02-24T13:43:25;11.30;99.90
25482;DHT22;13395;50.752;4.268;2023-02-24T13:45:58;11.20;99.90
25482;DHT22;13395;50.752;4.268;2023-02-24T13:48:42;11.20;99.90
25482;DHT22;13395;50.752;4.268;2023-02-24T14:02:18;10.90;99.90
25482;DHT22;13395;50.752;4.268;2023-02-24T14:04:54;11.00;99.90
25482;DHT22;13395;50.752;4.268;2023-02-24T14:07:33;10.80;99.90
25482;DHT22;13395;50.752;4.268;2023-02-24T14:10:05;10.60;99.90
25482;DHT22;13395;50.752;4.268;2023-02-24T14:12:40;10.60;99.90
25482;DHT22;13395;50.752;4.268;2023-02-24T14:15:12;10.60;99.90
25482;DHT22;13395;50.752;4.268;2023-02-24T14:17:39;10.60;99.90
25482;DHT22;13395;50.752;4.268;2023-02-24T14:20:20;10.60;99.90
25482;DHT22;13395;50.752;4.268;2023-02-24T14:22:49;10.40;99.90
25482;DHT22;13395;50.752;4.268;2023-02-24T14:25:17;10.30;99.90
25482;DHT22;13395;50.752;4.268;2023-02-24T14:27:45;10.30;99.90
25482;DHT22;13395;50.752;4.268;2023-02-24T14:30:27;10.40;99.90
25482;DHT22;13395;50.752;4.268;2023-02-24T14:32:55;10.20;99.90
25482;DHT22;13395;50.752;4.268;2023-02-24T14:35:45;10.00;99.90
25482;DHT22;13395;50.752;4.268;2023-02-24T14:41:04;10.10;99.90
25482;DHT22;13395;50.752;4.268;2023-02-24T14:43:30;10.30;99.90
25482;DHT22;13395;50.752;4.268;2023-02-24T14:45:56;10.20;99.90
25482;DHT22;13395;50.752;4.268;2023-02-24T14:48:26;10.20;99.90
25482;DHT22;13395;50.752;4.268;2023-02-24T14:51:06;10.30;99.90
25482;DHT22;13395;50.752;4.268;2023-02-24T14:53:36;10.40;99.90
25482;DHT22;13395;50.752;4.268;2023-02-24T14:56:03;10.20;99.90
25482;DHT22;13395;50.752;4.268;2023-02-24T15:01:35;9.60;99.90
25482;DHT22;13395;50.752;4.268;2023-02-24T15:04:25;9.50;99.90
25482;DHT22;13395;50.752;4.268;2023-02-24T15:06:55;9.40;99.90
25482;DHT22;13395;50.752;4.268;2023-02-24T15:09:24;9.30;99.90
25482;DHT22;13395;50.752;4.268;2023-02-24T15:11:51;9.20;99.90
25482;DHT22;13395;50.752;4.268;2023-02-24T15:14:22;9.30;99.90
25482;DHT22;13395;50.752;4.268;2023-02-24T15:16:54;9.30;99.90
25482;DHT22;13395;50.752;4.268;2023-02-24T15:19:36;9.30;99.90
25482;DHT22;13395;50.752;4.268;2023-02-24T15:22:03;9.30;99.90
25482;DHT22;13395;50.752;4.268;2023-02-24T15:24:41;9.40;99.90
25482;DHT22;13395;50.752;4.268;2023-02-24T15:29:40;9.30;99.90
25482;DHT22;13395;50.752;4.268;2023-02-24T15:32:18;9.40;99.90
25482;DHT22;13395;50.752;4.268;2023-02-24T15:34:46;9.30;99.90
25482;DHT22;13395;50.752;4.268;2023-02-24T15:37:36;9.20;99.90
25482;DHT22;13395;50.752;4.268;2023-02-24T15:47:58;9.10;99.90
25482;DHT22;13395;50.752;4.268;2023-02-24T15:50:25;9.10;99.90
25482;DHT22;13395;50.752;4.268;2023-02-24T15:52:51;9.20;99.90
25482;DHT22;13395;50.752;4.268;2023-02-24T15:55:18;9.30;99.90
25482;DHT22;13395;50.752;4.268;2023-02-24T15:57:45;9.40;99.90
25482;DHT22;13395;50.752;4.268;2023-02-24T16:00:14;9.20;99.90
25482;DHT22;13395;50.752;4.268;2023-02-24T16:02:41;9.00;99.90
25482;DHT22;13395;50.752;4.268;2023-02-24T16:05:14;9.10;99.90
25482;DHT22;13395;50.752;4.268;2023-02-24T16:07:43;9.20;99.90
25482;DHT22;13395;50.752;4.268;2023-02-24T16:10:26;9.20;99.90
25482;DHT22;13395;50.752;4.268;2023-02-24T16:12:58;9.10;99.90
25482;DHT22;13395;50.752;4.268;2023-02-24T16:15:27;9.20;99.90
25482;DHT22;13395;50.752;4.268;2023-02-24T16:17:54;9.20;99.90
25482;DHT22;13395;50.752;4.268;2023-02-24T16:20:26;9.30;99.90
25482;DHT22;13395;50.752;4.268;2023-02-24T16:22:59;9.30;99.90
25482;DHT22;13395;50.752;4.268;2023-02-24T16:25:26;9.20;99.90
25482;DHT22;13395;50.752;4.268;2023-02-24T16:27:52;9.30;99.90
25482;DHT22;13395;50.752;4.268;2023-02-24T16:30:26;9.40;99.90
25482;DHT22;13395;50.752;4.268;2023-02-24T16:32:55;9.40;99.90
25482;DHT22;13395;50.752;4.268;2023-02-24T16:35:21;9.40;99.90
25482;DHT22;13395;50.752;4.268;2023-02-24T16:37:47;9.40;99.90
25482;DHT22;13395;50.752;4.268;2023-02-24T16:40:25;9.40;99.90
25482;DHT22;13395;50.752;4.268;2023-02-24T16:42:52;9.50;99.90
25482;DHT22;13395;50.752;4.268;2023-02-24T16:45:19;9.50;99.90
25482;DHT22;13395;50.752;4.268;2023-02-24T16:47:47;9.30;99.90
25482;DHT22;13395;50.752;4.268;2023-02-24T16:50:28;9.30;99.90
25482;DHT22;13395;50.752;4.268;2023-02-24T16:52:55;9.10;99.90
25482;DHT22;13395;50.752;4.268;2023-02-24T16:55:21;9.20;99.90
25482;DHT22;13395;50.752;4.268;2023-02-24T16:57:46;9.10;99.90
25482;DHT22;13395;50.752;4.268;2023-02-24T17:00:13;9.10;99.90
25482;DHT22;13395;50.752;4.268;2023-02-24T17:02:41;9.00;99.90
25482;DHT22;13395;50.752;4.268;2023-02-24T17:05:17;9.10;99.90
25482;DHT22;13395;50.752;4.268;2023-02-24T17:07:47;9.20;99.90
25482;DHT22;13395;50.752;4.268;2023-02-24T17:10:14;9.20;99.90
25482;DHT22;13395;50.752;4.268;2023-02-24T17:12:40;9.20;99.90
25482;DHT22;13395;50.752;4.268;2023-02-24T17:15:07;9.30;99.90
25482;DHT22;13395;50.752;4.268;2023-02-24T17:17:33;9.30;99.90
25482;DHT22;13395;50.752;4.268;2023-02-24T17:20:00;9.20;99.90
25482;DHT22;13395;50.752;4.268;2023-02-24T17:22:26;9.10;99.90
25482;DHT22;13395;50.752;4.268;2023-02-24T17:24:52;9.30;99.90
25482;DHT22;13395;50.752;4.268;2023-02-24T17:27:18;9.20;99.90
25482;DHT22;13395;50.752;4.268;2023-02-24T17:29:43;9.30;99.90
25482;DHT22;13395;50.752;4.268;2023-02-24T17:32:09;9.40;99.90
25482;DHT22;13395;50.752;4.268;2023-02-24T17:34:35;9.20;99.90
25482;DHT22;13395;50.752;4.268;2023-02-24T17:37:00;8.90;99.90
25482;DHT22;13395;50.752;4.268;2023-02-24T17:39:26;9.00;99.90
25482;DHT22;13395;50.752;4.268;2023-02-24T17:41:52;8.90;99.90
25482;DHT22;13395;50.752;4.268;2023-02-24T17:44:17;8.70;99.90
25482;DHT22;13395;50.752;4.268;2023-02-24T17:46:43;8.50;99.90
25482;DHT22;13395;50.752;4.268;2023-02-24T17:49:08;8.50;99.90
25482;DHT22;13395;50.752;4.268;2023-02-24T17:51:34;8.50;99.90
25482;DHT22;13395;50.752;4.268;2023-02-24T17:53:59;8.50;99.90
25482;DHT22;13395;50.752;4.268;2023-02-24T17:56:25;8.50;99.90
25482;DHT22;13395;50.752;4.268;2023-02-24T17:58:51;8.50;99.90
25482;DHT22;13395;50.752;4.268;2023-02-24T18:01:19;8.50;99.90
25482;DHT22;13395;50.752;4.268;2023-02-24T18:03:45;8.60;99.90
25482;DHT22;13395;50.752;4.268;2023-02-24T18:06:11;8.40;99.90
25482;DHT22;13395;50.752;4.268;2023-02-24T18:08:37;8.40;99.90
25482;DHT22;13395;50.752;4.268;2023-02-24T18:11:04;8.50;99.90
25482;DHT22;13395;50.752;4.268;2023-02-24T18:13:31;8.50;99.90
25482;DHT22;13395;50.752;4.268;2023-02-24T18:15:57;8.40;99.90
25482;DHT22;13395;50.752;4.268;2023-02-24T18:18:24;8.30;99.90
25482;DHT22;13395;50.752;4.268;2023-02-24T18:20:49;8.20;99.90
25482;DHT22;13395;50.752;4.268;2023-02-24T18:23:15;8.20;99.90